Fortuna, Brazil
Current Conditions -  °F | °C
As of 6:00 PM on Saturday 25 Oct 2014 (Local Time) from SBTE Reporting Station
Few Clouds Few Clouds  
Wind Chill: 95°   Ceiling: Unl
Heat Index: 96°   Visibility: 6mi
Dew Point: 63°   Wind: 1mph
Humidity: 34%   Direction: 340°NNW
Pressure: 29.71"   Gusts: NA
Location:  5.73°S, 44.16°W
Report Text: SBTE 252100Z 34001KT 9999 FEW033 35/17 Q1006
Loading
Personal Weather Stations






























Interactive Weather Map
Tropical Storm Tracking
New forecast layout! Learn more

10-Day Weather Forecast

Advertisements
Track Severe Weather on mobile